Airfield :
LOGIN :

Register | Disclaimer

   EN    FR    IT 

 










Legend :    VFR   Marginal VFR   IFR   Intensive IFR   Very Intensive IFR
Visi :
Ceiling :
>= 8 km
>= 3000ft
5 to 8 km
1000 to 3000 ft
1500m to 5 km
500 to 1000 ft
800 to 1500m
200 to 500 ft
< 800m
< 200 ft
Symbols :   Thunderstorms  Fog  Heavy snow  Heavy precipitations  Wind > 20 kt
SIGMETs :     Misc.  Thunderstorms  Icing  Turbulence  Mountain Waves  Volcanic Ashes







- Airport Elevation : 529 ft
- IATA code : CHR
- Download approach charts


LFLX - Chateauroux

CURRENT METAR :
  • 220200Z AUTO VRB02KT CAVOK 02/M00 Q1028 TEMPO 0600 FG VV///

EXPIRED METARs :
  • 220130Z AUTO 03003KT 340V070 CAVOK 02/M01 Q1028 TEMPO 0600 FG VV///
  • 220100Z AUTO 06004KT CAVOK 03/M01 Q1028 TEMPO 0600 FG VV///
  • 220000Z AUTO VRB01KT CAVOK 04/00 Q1029 NOSIG

TAF TAF LFLX
Valid from the 22 at 00:00 until the 23 at 06:00 UTC


212300Z 2200/2306 VRB03KT CAVOK
PROB30
TEMPO 2202/2207 0600 FG VV///
PROB30
TEMPO 2301/2306 0600 FG VV///
No reported NOTAMs for that airfield.



MET'MAP, your aeronautical weather chart ! - Copyright ORBIFLY December 2007 - Disclaimer

ORBIFLY MET'MAP TEAM :

Programming & Development : Alexandra Zaïnal
Concept & Development : Baudouin d'Aumeries
Co-Development & Prog : Marc-Olivier Méhu
Technical & hardware support : Manuel Goepfert

Contact : metmap@orbifly.com




SOURCES & CREDITS :

   NOAA